CheckWX is a tool to help pilots better visualize weather data.  It is not intended as a substitute for an official pre-flight weather briefing.

00:12:24 UTC

KSBY TAF
Salisbury-Ocean City Wicomico Regional Airport
Salisbury, Maryland, USA
KSBY 260538Z 2606/2706 06005KT 1/2SM FG VV002 FM261300 06005KT 2SM BR OVC003 FM261500 07005KT P6SM OVC010 FM261700 10005KT P6SM BKN025 FM262000 11006KT P6SM BKN050

May-26@
06:00 UTC

May-26 @ 06:00 UTC

May-26@
13:00 UTC

May-26 @ 13:00 UTC

TAF KSBY 260538Z 2606/2706 06005KT 1/2SM FG VV002

Expired

Wind
  • 060° at 5 KTS
Conditions
Fog
Cloud Levels
  • Vertical visibility

May-26@
13:00 UTC

May-26 @ 13:00 UTC

May-26@
15:00 UTC

May-26 @ 15:00 UTC

FM261300 06005KT 2SM BR OVC003

Expired

Wind
  • 060° at 5 KTS
Conditions
Mist
Cloud Levels
  • Overcast at 300' AGL

May-26@
15:00 UTC

May-26 @ 15:00 UTC

May-26@
17:00 UTC

May-26 @ 17:00 UTC

FM261500 07005KT P6SM OVC010

Expired

Wind
  • 070° at 5 KTS
Cloud Levels
  • Overcast at 1,000' AGL

May-26@
17:00 UTC

May-26 @ 17:00 UTC

May-26@
20:00 UTC

May-26 @ 20:00 UTC

FM261700 10005KT P6SM BKN025

Expired

Wind
  • 100° at 5 KTS
Cloud Levels
  • Broken at 2,500' AGL

May-26@
20:00 UTC

May-26 @ 20:00 UTC

May-27@
06:00 UTC

May-27 @ 06:00 UTC

FM262000 11006KT P6SM BKN050

From

From Standard forecast or significant change

Wind
  • 110° at 6 KTS
Cloud Levels
  • Broken at 5,000' AGL